Historyczne dane pomiarowe

Dodano dane terminowe – wersja testowa.

Dane z okresu 1951-2019

Wersja bazy: 1.34 [2019-03-16, lista zmian], aktualizacja planowana na 2019-04-15

Dane meteo z obszaru Polski uzyskane na podstawie danych udostępnionych przez Instytut Meteorologii i Gospodarki Wodnej – Państwowy Instytut Badawczy.

 

Wybierz Datę:    

       

TemperaturaWilgotnośćWiatrCiśnienieOpadyŚniegCzas trwania zjawisk
 Stacja t tx tn tng RH VA  wxwx mslp ppp RRR   cm mm wxwxwxwxwxwxwx
1999-08-14 16.0 20.5 11.1 8.1 75.5- 3.3 7.3---- 0.3------------
1999-08-13 15.1 19.6 12.4 8.5 86.0- 6.0 5.7---- 25.2------------
1999-08-12 17.8 24.2 11.4 8.1 72.3- 4.3 4.0---- 0.0------------
1999-08-11 17.9 22.5 13.1 9.0 91.0- 6.0 6.3---- 4.1------------
1999-08-10 18.7 26.0 14.1 10.3 88.5- 5.0 4.0---- 13.8------------
1999-08-09 23.1 30.2 17.1 15.2 73.0- 3.0 5.0---- 1.0------------
1999-08-08 19.0 22.8 16.1 13.2 90.5- 7.3 6.0---- 4.6------------
1999-08-07 21.2 29.5 14.5 9.8 62.3- 4.7 2.0---- 4.7------------
1999-08-06 21.5 31.0 14.0 9.3 58.0- 5.7 4.3---- 0.0------------
1999-08-05 20.6 30.8 8.9 5.5 70.5- 3.0 2.7---- 0.0------------
1999-08-04 18.9 27.3 11.6 7.3 73.5- 3.0 3.0---- 0.0------------
1999-08-03 19.7 27.1 14.1 8.0 69.3- 1.3 5.0---- 0.0------------
1999-08-02 19.9 27.4 14.0 10.1 70.8- 1.0 3.7---- 0.0------------
1999-08-01 20.2 27.0 13.4 10.7 65.5- 2.0 5.0---- 0.0------------
1999-07-31 20.3 28.0 13.1 10.1 72.0- 0.7 4.7---- 0.0------------
1999-07-30 19.8 26.8 12.9 8.6 79.3- 2.3 4.7---- 0.0------------
1999-07-29 19.7 25.5 12.0 7.1 79.0- 3.0 4.0---- 0.0------------
1999-07-28 18.9 24.6 12.0 9.4 81.5- 3.0 5.0---- 0.0------------
1999-07-27 17.3 22.5 10.3 4.8 85.3- 2.7 4.3---- 0.0------------
1999-07-26 17.8 22.8 14.0 10.9 94.5- 8.0 3.0---- 0.0------------
1999-07-25 21.4 25.5 16.1 13.8 86.5- 8.0 3.7---- 0.0------------
1999-07-24 18.0 23.0 10.8 6.8 89.8- 6.3 3.7---- 0.0------------
1999-07-23 18.1 26.0 11.3 7.8 83.0- 5.0 4.0---- 0.0------------
1999-07-22 19.9 27.4 15.7 14.7 91.5- 4.3 3.3---- 0.5------------
1999-07-21 23.1 29.8 16.6 13.4 79.5- 2.3 4.0---- 6.9------------
1999-07-20 21.3 31.4 11.6 8.0 80.5- 2.0 3.0---- 7.6------------
1999-07-19 20.8 26.7 15.2 11.5 78.5- 1.7 2.3---- 0.0------------
1999-07-18 19.3 28.1 13.3 9.8 86.3- 3.7 5.7---- 5.2------------
1999-07-17 17.3 23.6 10.6 6.6 86.0- 3.7 4.0---- 1.5------------
1999-07-16 17.6 23.5 10.8 7.1 82.0- 3.0 5.3---- 1.3------------
1999-07-15 18.2 22.5 15.5 14.2 89.0- 4.7 8.0---- 0.0------------
1999-07-14 21.1 28.0 16.5 12.7 89.3- 6.0 5.7---- 4.7------------
1999-07-13 23.2 30.2 15.8 12.7 78.0- 3.7 3.7---- 0.0------------
1999-07-12 22.1 29.2 13.2 8.6 72.3- 1.0 5.0---- 0.0------------
1999-07-11 21.0 28.4 11.9 8.9 78.0- 0.0 4.3---- 0.0------------
1999-07-10 19.2 25.5 11.9 9.7 65.0- 0.7 6.0---- 0.0------------
1999-07-09 18.1 22.2 13.6 11.6 72.5- 1.0 11.3---- 0.0------------
1999-07-08 18.6 21.5 15.3 11.4 86.3- 6.7 8.0---- 1.8------------
1999-07-07 18.4 22.5 15.3 13.2 83.8- 6.3 2.3---- 0.0------------
1999-07-06 23.5 30.5 19.0 14.2 76.0- 2.0 4.7---- 7.3------------
1999-07-05 24.5 32.0 15.0 11.7 70.5- 2.3 3.0---- 0.0------------
1999-07-04 21.7 30.6 13.4 10.1 77.3- 4.0 6.0---- 0.0------------
1999-07-03 19.0 24.6 11.6 7.0 77.5- 4.0 4.7---- 0.0------------
1999-07-02 17.7 22.5 13.0 12.1 76.0- 4.7 4.3---- 0.0------------
1999-07-01 19.2 26.2 12.4 8.7 87.5- 6.3 4.7---- 14.8------------
1999-06-30 19.5 26.6 11.4 8.1 81.5- 3.3 2.3---- 0.0------------
1999-06-29 18.7 27.2 13.4 10.8 83.0- 5.3 4.3---- 0.0------------
1999-06-28 21.4 28.3 11.2 7.5 65.5- 2.7 4.0---- 10.8------------
1999-06-27 18.9 27.3 8.6 4.3 65.3- 2.3 5.3---- 0.0------------
1999-06-26 14.4 19.7 8.0 8.1 71.5- 4.0 2.7---- 0.0------------
1999-06-25 14.0 17.8 9.9 6.4 77.0- 3.7 2.0---- 0.4------------
1999-06-24 13.8 17.6 9.8 8.1 79.3- 5.3 4.7---- 0.9------------
1999-06-23 12.3 15.2 9.7 8.1 89.0- 7.3 7.7---- 2.2------------
1999-06-22 12.6 14.2 10.7 10.0 80.3- 8.0 11.0---- 11.9------------
1999-06-21 17.4 22.6 12.8 12.9 71.3- 5.3 5.7---- 0.7------------
1999-06-20 19.8 25.0 15.1 13.5 67.0- 5.0 1.7---- 0.0------------
1999-06-19 21.2 26.7 14.8 13.4 79.8- 5.3 5.7---- 0.0------------
1999-06-18 17.4 23.0 10.0 6.5 70.5- 2.0 6.0---- 0.0------------
1999-06-17 16.9 23.4 11.6 8.6 74.0- 3.0 4.7---- 0.0------------
1999-06-16 16.8 22.0 12.9 12.2 78.5- 5.0 4.3---- 0.0------------
231.0 ms

 

Źródłem pochodzenia danych jest Instytut Meteorologii i Gospodarki Wodnej – Państwowy Instytut Badawczy. Dane Instytutu Meteorologii i Gospodarki Wodnej – Państwowego Instytutu Badawczego zostały przetworzone.

Dane źródłowe można odnaleźć na stronie https://dane.imgw.pl